Athboy, South Dakota
Current Conditions -  °F | °C
As of 12:53 AM on Thursday 18 Dec 2014 (Local Time) from KHEI Reporting Station
Haze Haze  
Wind Chill:   Ceiling: 300
Heat Index: 19°   Visibility: 3mi
Dew Point: 16°   Wind: 9mph
Humidity: 88%   Direction: 150°SSE
Pressure: 30.02"   Gusts: NA
Location:  45.2919°N, 102.298°W
Report Text: KHEI 180753Z AUTO 15008KT 3SM BR OVC003 M07/M09 A3002 RMK AO2 SLP210 I1001 T10721089
Loading
Personal Weather Stations






























Interactive Weather Map New forecast layout! Learn more

10-Day Weather Forecast

Advertisements
Track Severe Weather on mobile